Terminal Aerodrome Forecast
Issued by NWS Duluth, MN

Home | Current Version | Previous Version | Text Only | Print | Product List | Glossary On
Versions: 1 2 3 4 5 6 7 8 9 10 11 12 13 14 15 16 17 18 19
000
FTUS43 KDLH 141700
TAFINL
TAF
KINL 141738Z 1418/1518 01009G18KT P6SM BKN060
     FM150200 35008KT P6SM SCT030
     FM150300 30009KT P6SM OVC050
     FM151500 29005KT P6SM OVC050=

USA.gov is the U.S. government's official web portal to all federal, state and local government web resources and services.